< < Back
Terminal Aerodrome Forecast


Current Version              Previous Versions:   1  2  3  4  5  6  7  8  9  

Terminal Aerodrome Forecast

642
FTUS42 KTAE 040500
TAFTLH
TAF
KTLH 040521Z 0406/0506 00000KT 1/2SM FG BKN003
     FM040800 00000KT 1/4SM FG VV001
     FM041400 16004KT 3SM BR OVC004
     FM041600 19010KT P6SM SCT015 BKN035
     FM050100 19003KT 5SM BR BKN005=

Latest METAR

523
SAUS80 KWBC 041100 RRC
MTRTLH
METAR KTLH 041053Z AUTO 00000KT 1/2SM FG VV002 17/16 A3010 RMK AO2
SLP193 T01670161 $


USA.gov is the U.S. government's official web portal to all federal, state and local government web resources and services.